Time;durP1;ratioP1;P1;durP2;ratioP2;P2;SDS_P1;SDS_P2;PMS_P1;PMS_P2;Temp;Humidity;BMP_temperature;BMP_pressure;BME280_temperature;BME280_humidity;BME280_pressure;Samples;Min_cycle;Max_cycle;Signal;HPM_P1;HPM_P2
2022/04/26 03:37:17;;;;;;;8.03;3.60;;;;;;;-145.18;100.00;46605.69;4990419;28;20299;-72
2022/04/26 03:39:43;;;;;;;6.53;3.70;;;;;;;-145.18;100.00;46592.03;4991018;28;20824;-72
2022/04/26 03:42:09;;;;;;;6.80;3.37;;;;;;;-145.18;100.00;46595.94;4990842;28;20271;-72
2022/04/26 03:44:34;;;;;;;9.07;3.70;;;;;;;-145.18;100.00;46593.97;4990905;28;20292;-72
2022/04/26 03:47:00;;;;;;;9.93;4.00;;;;;;;-145.18;100.00;46601.78;4990752;28;20388;-72
2022/04/26 03:49:25;;;;;;;10.00;3.60;;;;;;;-145.18;100.00;46595.94;4990658;28;20057;-72
2022/04/26 03:51:54;;;;;;;6.30;3.70;;;;;;;-145.18;100.00;46601.78;4991196;28;20428;-72
2022/04/26 03:54:23;;;;;;;6.33;3.57;;;;;;;-145.18;100.00;46595.94;4990402;28;20049;-72
2022/04/26 03:56:49;;;;;;;5.83;3.50;;;;;;;-145.18;100.00;46593.97;4966839;28;20284;-72
2022/04/26 03:59:15;;;;;;;7.60;3.37;;;;;;;-145.18;100.00;46597.88;4952140;29;20273;-72
2022/04/26 04:01:41;;;;;;;5.40;3.40;;;;;;;-145.18;100.00;46590.06;4952572;29;20371;-72
2022/04/26 04:04:06;;;;;;;5.10;3.60;;;;;;;-145.18;100.00;46593.97;4934611;29;20325;-72
2022/04/26 04:06:32;;;;;;;6.23;3.93;;;;;;;-145.18;100.00;46590.06;4951922;29;20031;-72
2022/04/26 04:08:57;;;;;;;9.40;4.57;;;;;;;-145.18;100.00;46627.19;4951673;29;20042;-72
2022/04/26 04:11:23;;;;;;;8.47;4.20;;;;;;;-145.18;100.00;46627.19;4952101;29;20039;-72
2022/04/26 04:13:48;;;;;;;6.43;4.50;;;;;;;-145.18;100.00;46584.22;4951634;29;20039;-72
2022/04/26 04:16:14;;;;;;;6.57;3.73;;;;;;;-145.18;100.00;46625.22;4951868;29;20039;-72
2022/04/26 04:21:23;;;;;;;7.73;4.30;;;;;;;-145.18;100.00;46568.59;4952360;29;20518;-72
2022/04/26 04:23:49;;;;;;;8.53;4.47;;;;;;;-145.18;100.00;46570.53;4951791;29;20309;-72
2022/04/26 04:26:14;;;;;;;8.90;4.30;;;;;;;-145.18;100.00;46566.63;4951641;29;20496;-72
2022/04/26 04:28:39;;;;;;;9.93;4.70;;;;;;;-145.18;100.00;46568.59;4951704;29;20098;-72
2022/04/26 04:31:05;;;;;;;9.63;4.93;;;;;;;-145.18;100.00;46570.53;4951724;29;20130;-71
2022/04/26 04:33:30;;;;;;;7.77;5.07;;;;;;;-145.18;100.00;46574.44;4951172;28;20097;-72
2022/04/26 04:35:56;;;;;;;10.63;5.17;;;;;;;-145.18;100.00;46613.50;4934501;29;20035;-72
2022/04/26 04:38:21;;;;;;;11.30;6.00;;;;;;;-145.18;100.00;46621.31;4950972;29;20066;-72
2022/04/26 04:40:46;;;;;;;11.80;5.67;;;;;;;-145.18;100.00;46631.09;4951941;29;20031;-72
2022/04/26 04:43:12;;;;;;;10.00;5.47;;;;;;;-145.18;100.00;46642.81;4951003;29;20539;-72
2022/04/26 04:45:39;;;;;;;14.47;7.20;;;;;;;-145.18;100.00;46656.50;4951136;28;20027;-71
2022/04/26 04:48:05;;;;;;;11.40;6.47;;;;;;;-145.18;100.00;46660.41;4953280;28;20280;-72
2022/04/26 04:50:34;;;;;;;13.50;6.10;;;;;;;-145.18;100.00;46640.88;4956539;28;20666;-71
2022/04/26 04:53:00;;;;;;;10.77;6.07;;;;;;;-145.18;100.00;46646.72;4971502;28;20307;-71
2022/04/26 04:55:25;;;;;;;17.77;6.50;;;;;;;-145.18;100.00;46648.69;4978940;28;20280;-71
2022/04/26 04:57:51;;;;;;;13.20;6.33;;;;;;;-145.18;100.00;46660.41;4995538;28;20053;-71
2022/04/26 05:00:17;;;;;;;11.50;7.20;;;;;;;-145.18;100.00;46666.25;4996446;28;20057;-72
2022/04/26 05:02:42;;;;;;;15.00;6.77;;;;;;;-145.18;100.00;46664.31;4996093;28;20339;-71
2022/04/26 05:05:08;;;;;;;11.27;6.70;;;;;;;-145.18;100.00;46662.34;4996282;28;20038;-71
2022/04/26 05:07:33;;;;;;;14.57;7.90;;;;;;;-145.18;100.00;46666.25;4996455;28;20053;-72
2022/04/26 05:09:59;;;;;;;10.63;6.90;;;;;;;-145.18;100.00;46666.25;4996517;28;20073;-71
2022/04/26 05:12:24;;;;;;;13.83;6.97;;;;;;;-145.18;100.00;46670.16;4996195;28;20035;-72
2022/04/26 05:14:49;;;;;;;12.90;7.00;;;;;;;-145.18;100.00;46668.22;4996280;28;20189;-71
2022/04/26 05:17:15;;;;;;;14.40;6.90;;;;;;;-145.18;100.00;46660.41;4996467;28;20093;-71
2022/04/26 05:19:40;;;;;;;16.50;7.20;;;;;;;-145.18;100.00;46650.63;4996327;28;20041;-71
2022/04/26 05:22:09;;;;;;;10.37;6.53;;;;;;;-145.18;100.00;46660.41;4979099;28;20086;-71
2022/04/26 05:24:58;;;;;;;10.93;6.63;;;;;;;-145.18;100.00;46660.41;4996215;28;20031;-71
2022/04/26 05:27:31;;;;;;;13.80;7.00;;;;;;;-145.18;100.00;46660.41;4996264;28;20391;-72
2022/04/26 05:29:57;;;;;;;18.93;7.20;;;;;;;-145.18;100.00;46642.81;4996338;28;20272;-71
2022/04/26 05:32:24;;;;;;;16.27;7.00;;;;;;;-145.18;100.00;46642.81;4996162;28;20265;-71
2022/04/26 05:34:58;;;;;;;15.93;6.50;;;;;;;-145.18;100.00;46642.81;4996136;28;20100;-72
2022/04/26 05:37:25;;;;;;;13.80;7.00;;;;;;;-145.18;100.00;46636.94;4996197;28;20311;-71
2022/04/26 05:39:50;;;;;;;14.33;7.03;;;;;;;-145.18;100.00;46636.94;4996144;28;20289;-70
2022/04/26 05:42:16;;;;;;;12.87;7.67;;;;;;;-145.18;100.00;46636.94;4996209;28;20288;-71
2022/04/26 05:44:42;;;;;;;18.30;7.40;;;;;;;-145.18;100.00;46633.06;4995830;28;20118;-71
2022/04/26 05:47:08;;;;;;;11.93;6.37;;;;;;;-145.18;100.00;46631.09;4995768;28;20049;-71
2022/04/26 05:49:34;;;;;;;14.23;7.23;;;;;;;-145.18;100.00;46621.31;4996050;28;20283;-71
2022/04/26 05:52:01;;;;;;;15.60;7.63;;;;;;;-145.18;100.00;46623.28;4996218;28;20272;-71
2022/04/26 05:54:27;;;;;;;10.70;7.43;;;;;;;-145.18;100.00;46625.22;4995739;28;20545;-71
2022/04/26 05:56:53;;;;;;;12.43;7.30;;;;;;;-145.18;100.00;46625.22;4996038;28;20276;-71
2022/04/26 05:59:20;;;;;;;14.60;7.77;;;;;;;-145.18;100.00;46631.09;4994153;28;20458;-71
2022/04/26 06:01:45;;;;;;;16.87;7.30;;;;;;;-145.18;100.00;46629.13;4992732;28;20329;-71
2022/04/26 06:04:11;;;;;;;18.00;7.83;;;;;;;-145.18;100.00;46635.00;4992436;28;20295;-71
2022/04/26 06:06:36;;;;;;;12.80;6.87;;;;;;;-145.18;100.00;46576.41;4993065;28;20065;-71
2022/04/26 06:09:03;;;;;;;10.73;6.93;;;;;;;-145.18;100.00;46566.63;4992401;28;20038;-71
2022/04/26 06:11:28;;;;;;;17.80;7.60;;;;;;;-145.18;100.00;46554.91;4993174;28;20085;-70
2022/04/26 06:13:54;;;;;;;11.67;6.73;;;;;;;-145.18;100.00;46549.06;4992829;28;20272;-71
2022/04/26 06:16:19;;;;;;;21.83;7.83;;;;;;;-145.18;100.00;46549.06;4992759;28;20031;-70
2022/04/26 06:18:45;;;;;;;13.93;7.60;;;;;;;-145.18;100.00;46551.00;4982198;28;20563;-70
2022/04/26 06:21:10;;;;;;;10.37;7.20;;;;;;;-145.18;100.00;46549.06;4953062;28;20039;-71
2022/04/26 06:23:36;;;;;;;13.00;6.73;;;;;;;-145.18;100.00;46560.78;4953165;28;20545;-71
2022/04/26 06:26:01;;;;;;;14.57;6.90;;;;;;;-145.18;100.00;46558.81;4936516;29;20053;-71
2022/04/26 06:28:27;;;;;;;14.23;6.57;;;;;;;-145.18;100.00;46562.72;4953236;29;20050;-71
2022/04/26 06:30:54;;;;;;;11.37;6.73;;;;;;;-145.18;100.00;46564.69;4953840;29;20023;-71
2022/04/26 06:33:19;;;;;;;13.40;7.37;;;;;;;-145.18;100.00;46556.88;4953283;29;20034;-71
2022/04/26 06:35:45;;;;;;;14.07;6.37;;;;;;;-145.18;100.00;46562.72;4953901;29;20897;-71
2022/04/26 06:38:10;;;;;;;12.77;6.53;;;;;;;-145.18;100.00;46556.88;4953010;29;20070;-71
2022/04/26 06:40:35;;;;;;;15.27;6.73;;;;;;;-145.18;100.00;46558.81;4936040;29;20039;-71
2022/04/26 06:43:01;;;;;;;17.13;6.27;;;;;;;-145.18;100.00;46560.78;4953352;29;20043;-71
2022/04/26 06:45:27;;;;;;;13.30;6.63;;;;;;;-145.18;100.00;46568.59;4953365;29;20039;-71
2022/04/26 06:47:54;;;;;;;15.70;6.50;;;;;;;-145.18;100.00;46560.78;4953329;29;20039;-71
2022/04/26 06:50:20;;;;;;;14.40;7.27;;;;;;;-145.18;100.00;46566.63;4953218;29;20035;-71
2022/04/26 06:52:46;;;;;;;10.07;5.90;;;;;;;-145.18;100.00;46568.59;4953181;29;20348;-71
2022/04/26 06:55:11;;;;;;;14.17;6.10;;;;;;;-145.18;100.00;46570.53;4953015;29;20301;-71
2022/04/26 06:57:37;;;;;;;12.47;7.20;;;;;;;-145.18;100.00;46570.53;4953568;29;20543;-71
2022/04/26 07:00:05;;;;;;;11.07;6.20;;;;;;;-145.18;100.00;46568.59;4953072;29;20042;-71
2022/04/26 07:02:30;;;;;;;11.17;6.13;;;;;;;-145.18;100.00;46572.50;4952791;29;20360;-70
2022/04/26 07:04:56;;;;;;;23.17;7.63;;;;;;;-145.18;100.00;46582.25;4966929;28;20395;-71
2022/04/26 07:07:22;;;;;;;13.50;5.50;;;;;;;-145.18;100.00;46574.44;4971685;28;20464;-71
2022/04/26 07:09:47;;;;;;;11.17;6.70;;;;;;;-145.18;100.00;46574.44;4970551;28;20100;-71
2022/04/26 07:12:13;;;;;;;12.70;6.83;;;;;;;-145.18;100.00;46572.50;4971550;28;20035;-72
2022/04/26 07:14:38;;;;;;;13.97;7.27;;;;;;;-145.18;100.00;46582.25;4971842;28;20050;-71
2022/04/26 07:17:04;;;;;;;10.40;5.87;;;;;;;-145.18;100.00;46566.63;4972415;28;20047;-71
2022/04/26 07:19:30;;;;;;;10.57;5.73;;;;;;;-145.18;100.00;46572.50;4971918;28;20027;-71
2022/04/26 07:21:55;;;;;;;13.07;5.47;;;;;;;-145.18;100.00;46580.31;4972182;28;20058;-71
2022/04/26 07:24:21;;;;;;;14.03;5.47;;;;;;;-145.18;100.00;46574.44;4971679;28;20312;-71
2022/04/26 07:26:46;;;;;;;12.40;4.87;;;;;;;-145.18;100.00;46578.34;4972004;28;20026;-71
2022/04/26 07:29:15;;;;;;;8.03;4.50;;;;;;;-145.18;100.00;46590.06;4971765;28;20114;-71
2022/04/26 07:31:40;;;;;;;8.70;4.63;;;;;;;-145.18;100.00;46586.16;4971962;28;20058;-71
2022/04/26 07:34:21;;;;;;;12.37;4.80;;;;;;;-145.18;100.00;46580.31;4971558;28;20316;-71
2022/04/26 07:36:59;;;;;;;16.70;4.47;;;;;;;-145.18;100.00;46586.16;4972016;28;20445;-71
2022/04/26 07:39:25;;;;;;;12.53;4.93;;;;;;;-145.18;100.00;46592.03;4971725;28;20316;-71
2022/04/26 07:41:50;;;;;;;10.67;4.83;;;;;;;-145.18;100.00;46584.22;4972007;28;20280;-71
2022/04/26 07:44:16;;;;;;;13.33;4.63;;;;;;;-145.18;100.00;46588.13;4971330;28;20816;-71
2022/04/26 07:46:44;;;;;;;9.93;5.03;;;;;;;-145.18;100.00;46582.25;4971439;28;20058;-71
2022/04/26 07:49:13;;;;;;;5.97;3.73;;;;;;;-145.18;100.00;46597.88;4970984;28;20464;-71
2022/04/26 07:51:40;;;;;;;12.47;5.10;;;;;;;-145.18;100.00;46578.34;4971679;28;20935;-71
2022/04/26 07:54:06;;;;;;;11.00;4.10;;;;;;;-145.18;100.00;46582.25;4971425;28;20276;-71
2022/04/26 07:56:32;;;;;;;11.13;4.00;;;;;;;-145.18;100.00;46588.13;4971486;28;20915;-71
2022/04/26 07:58:58;;;;;;;10.47;3.83;;;;;;;-145.18;100.00;46586.16;4971146;28;20716;-71
2022/04/26 08:01:26;;;;;;;11.50;3.83;;;;;;;-145.18;100.00;46621.31;4971240;28;20283;-71
2022/04/26 08:03:52;;;;;;;12.03;4.00;;;;;;;-145.18;100.00;46605.69;4971387;28;20067;-71
2022/04/26 08:06:18;;;;;;;12.33;3.53;;;;;;;-145.18;100.00;46621.31;4971027;28;20459;-71
2022/04/26 08:08:43;;;;;;;12.13;4.00;;;;;;;-145.18;100.00;46609.59;4970815;28;20043;-71
2022/04/26 08:11:12;;;;;;;13.00;3.57;;;;;;;-145.18;100.00;46625.22;4953883;28;20050;-71
2022/04/26 08:13:40;;;;;;;9.53;4.10;;;;;;;-145.18;100.00;46644.78;4970836;28;20034;-71
2022/04/26 08:16:07;;;;;;;11.43;4.03;;;;;;;-145.18;100.00;46625.22;4971533;28;20826;-71
2022/04/26 08:18:32;;;;;;;11.10;3.90;;;;;;;-145.18;100.00;46629.13;4970439;28;20264;-71
2022/04/26 08:20:58;;;;;;;11.00;4.07;;;;;;;-145.18;100.00;46650.63;4971434;28;20797;-71
2022/04/26 08:23:24;;;;;;;12.33;3.87;;;;;;;-145.18;100.00;46638.91;4970079;28;20038;-71
2022/04/26 08:28:33;;;;;;;13.40;3.93;;;;;;;-145.18;100.00;46633.06;4970691;28;20158;-71
2022/04/26 08:31:00;;;;;;;8.93;3.90;;;;;;;-145.18;100.00;46654.53;4971310;28;20750;-71
2022/04/26 08:33:26;;;;;;;12.10;3.80;;;;;;;-145.18;100.00;46650.63;4970369;28;20051;-72
2022/04/26 08:35:52;;;;;;;10.23;4.37;;;;;;;-145.18;100.00;46672.13;4971387;28;20615;-71
2022/04/26 08:38:17;;;;;;;11.97;4.23;;;;;;;-145.18;100.00;46689.69;4970538;28;20284;-71
2022/04/26 08:40:43;;;;;;;12.10;3.80;;;;;;;-145.18;100.00;46679.94;4970829;28;20019;-71
2022/04/26 08:43:09;;;;;;;8.47;3.93;;;;;;;-145.18;100.00;46640.88;4970671;28;20027;-71
2022/04/26 08:45:38;;;;;;;6.33;3.70;;;;;;;-145.18;100.00;46679.94;4953306;28;20034;-71
2022/04/26 08:51:00;;;;;;;11.90;4.57;;;;;;;-145.18;100.00;46707.28;4971228;28;20343;-71
2022/04/26 08:53:28;;;;;;;8.17;3.53;;;;;;;-145.18;100.00;46695.56;4970304;28;20380;-71
2022/04/26 08:55:55;;;;;;;11.43;3.23;;;;;;;-145.18;100.00;46709.22;4970955;28;20292;-71
2022/04/26 08:58:23;;;;;;;8.53;3.53;;;;;;;-145.18;100.00;46779.56;4970359;28;20388;-71
2022/04/26 09:01:11;;;;;;;12.80;3.83;;;;;;;-145.18;100.00;46822.53;4971137;28;20650;-71
2022/04/26 09:03:40;;;;;;;5.53;3.10;;;;;;;-145.18;100.00;47269.88;4970217;28;20292;-71
2022/04/26 09:06:15;;;;;;;9.40;3.90;;;;;;;-145.18;100.00;46978.81;4970613;28;20392;-71
2022/04/26 09:08:43;;;;;;;7.55;3.75;;;;;;;-145.18;100.00;46931.91;4969914;28;20283;-71
2022/04/26 09:11:33;;;;;;;7.20;3.57;;;;;;;-145.18;100.00;46867.44;4970715;28;20413;-71
2022/04/26 09:13:59;;;;;;;7.80;2.67;;;;;;;-145.18;100.00;47338.25;4970155;28;20256;-71
2022/04/26 09:16:24;;;;;;;4.10;2.67;;;;;;;-145.18;100.00;47307.00;4970512;28;20273;-71
2022/04/26 09:18:53;;;;;;;4.53;2.90;;;;;;;-145.18;100.00;47293.31;4970403;28;20424;-71
2022/04/26 09:21:19;;;;;;;4.83;2.57;;;;;;;-145.18;100.00;47297.22;4970091;28;20049;-71
2022/04/26 09:23:46;;;;;;;14.07;2.73;;;;;;;-145.18;100.00;47291.38;4969756;28;20296;-71
2022/04/26 09:26:16;;;;;;;9.70;2.83;;;;;;;-145.18;100.00;47312.88;4970176;28;20359;-71
2022/04/26 09:28:47;;;;;;;8.93;3.60;;;;;;;-145.18;100.00;47299.19;4970220;28;20266;-71
2022/04/26 09:31:23;;;;;;;8.87;2.47;;;;;;;-145.18;100.00;47310.91;4970646;28;20280;-71
2022/04/26 09:33:52;;;;;;;5.07;2.53;;;;;;;-145.18;100.00;47314.81;4970322;28;20421;-71
2022/04/26 09:36:20;;;;;;;8.37;3.60;;;;;;;-145.18;100.00;47308.97;4954514;28;20348;-71
2022/04/26 09:38:53;;;;;;;7.07;2.87;;;;;;;-145.18;100.00;47291.38;4959138;28;20253;-71
2022/04/26 09:41:20;;;;;;;5.87;3.07;;;;;;;-145.18;100.00;47314.81;4956411;28;20630;-71
2022/04/26 09:44:03;;;;;;;8.20;3.00;;;;;;;-145.18;100.00;47332.41;4954263;29;20624;-71
2022/04/26 09:46:52;;;;;;;7.63;2.47;;;;;;;-145.18;100.00;47291.38;4954481;29;20277;-71
2022/04/26 09:49:21;;;;;;;6.70;2.47;;;;;;;-145.18;100.00;47262.06;4954348;29;20266;-71
2022/04/26 09:51:51;;;;;;;6.87;2.53;;;;;;;-145.18;100.00;47219.09;4967176;28;20261;-71
2022/04/26 09:54:17;;;;;;;4.43;2.60;;;;;;;-145.18;100.00;47248.41;4973147;28;20405;-71
2022/04/26 09:56:46;;;;;;;8.13;2.60;;;;;;;-145.18;100.00;47291.38;4973731;28;20746;-71
2022/04/26 09:59:17;;;;;;;4.90;2.63;;;;;;;-145.18;100.00;47262.06;4973401;28;20058;-71
2022/04/26 10:01:47;;;;;;;8.77;3.40;;;;;;;-145.18;100.00;47258.16;4973482;28;20035;-71
2022/04/26 10:04:16;;;;;;;11.40;3.97;;;;;;;-145.18;100.00;47277.69;4972851;28;20496;-71
2022/04/26 10:06:44;;;;;;;7.47;2.83;;;;;;;-145.18;100.00;47238.63;4956001;28;20355;-71
2022/04/26 10:09:10;;;;;;;7.37;2.60;;;;;;;-145.18;100.00;47228.84;4972956;28;20027;-71
2022/04/26 10:11:37;;;;;;;12.63;3.10;;;;;;;-145.18;100.00;47187.84;4973520;28;20126;-71
2022/04/26 10:14:07;;;;;;;13.03;2.90;;;;;;;-145.18;100.00;47195.66;4973215;28;20519;-71
2022/04/26 10:16:33;;;;;;;8.60;2.83;;;;;;;-145.18;100.00;47254.25;4958884;28;20047;-71
2022/04/26 10:19:09;;;;;;;7.10;2.67;;;;;;;-145.18;100.00;47240.56;4952995;28;20039;-71
2022/04/26 10:21:40;;;;;;;7.10;2.73;;;;;;;-145.18;100.00;47219.09;4973213;28;20031;-72
2022/04/26 10:24:06;;;;;;;6.63;3.00;;;;;;;-145.18;100.00;47232.75;4973012;28;20042;-71
2022/04/26 10:26:33;;;;;;;7.50;3.00;;;;;;;-145.18;100.00;47207.38;4962354;28;20071;-71
2022/04/26 10:29:07;;;;;;;7.13;3.40;;;;;;;-145.18;100.00;47207.38;4953204;29;20138;-72
2022/04/26 10:31:33;;;;;;;6.33;2.87;;;;;;;-145.18;100.00;47230.81;4953655;29;20050;-71
2022/04/26 10:33:59;;;;;;;8.87;2.83;;;;;;;-145.18;100.00;47279.66;4953130;29;20063;-71
2022/04/26 10:36:28;;;;;;;7.37;2.80;;;;;;;-145.18;100.00;47273.78;4953588;29;20034;-71
2022/04/26 10:39:06;;;;;;;9.73;2.60;;;;;;;-145.18;100.00;47275.75;4969193;28;20022;-71
2022/04/26 10:41:38;;;;;;;4.43;2.57;;;;;;;-145.18;100.00;47293.31;4972780;28;20027;-71
2022/04/26 10:44:28;;;;;;;5.20;2.53;;;;;;;-145.18;100.00;47273.78;4972393;28;20266;-71
2022/04/26 10:46:55;;;;;;;7.70;2.37;;;;;;;-145.18;100.00;47262.06;4954991;28;20277;-71
2022/04/26 10:49:22;;;;;;;5.90;2.77;;;;;;;-145.18;100.00;47267.94;4972163;28;20288;-71
2022/04/26 10:51:48;;;;;;;5.00;2.20;;;;;;;-145.18;100.00;47265.97;4972820;28;20038;-71
2022/04/26 10:54:13;;;;;;;7.10;2.60;;;;;;;-145.18;100.00;47277.69;4970392;28;20049;-71
2022/04/26 10:56:38;;;;;;;4.57;2.47;;;;;;;-145.18;100.00;47228.84;4958222;28;20042;-71
2022/04/26 10:59:13;;;;;;;6.63;2.33;;;;;;;-145.18;100.00;47242.53;4971510;28;20045;-71
2022/04/26 11:01:39;;;;;;;6.87;2.10;;;;;;;-145.18;100.00;47209.31;4972244;28;20787;-71
2022/04/26 11:04:05;;;;;;;6.40;2.27;;;;;;;-145.18;100.00;47240.56;4971210;28;20042;-71
2022/04/26 11:06:35;;;;;;;7.57;3.13;;;;;;;-145.18;100.00;47209.31;4971949;28;20099;-71
2022/04/26 11:09:08;;;;;;;7.97;2.67;;;;;;;-145.18;100.00;47215.19;4954128;28;20046;-71
2022/04/26 11:11:50;;;;;;;3.43;2.00;;;;;;;-145.18;100.00;47273.78;4971861;28;20480;-71
2022/04/26 11:14:17;;;;;;;6.50;2.47;;;;;;;-145.18;100.00;47262.06;4934814;29;20416;-71
2022/04/26 11:17:04;;;;;;;5.10;1.57;;;;;;;-145.18;100.00;47242.53;4944035;28;20070;-71
2022/04/26 11:19:32;;;;;;;5.77;2.97;;;;;;;-145.18;100.00;47265.97;4971064;28;20055;-71
2022/04/26 11:22:06;;;;;;;7.27;2.73;;;;;;;-145.18;100.00;47273.78;4970251;28;20042;-71
2022/04/26 11:30:08;;;;;;;7.47;2.00;;;;;;;-145.18;100.00;47199.56;4952548;29;20122;-72
2022/04/26 11:32:35;;;;;;;5.07;2.40;;;;;;;-145.18;100.00;47226.91;4952154;29;20359;-71
2022/04/26 11:35:01;;;;;;;5.93;2.50;;;;;;;-145.18;100.00;47205.41;4951613;29;20046;-71
2022/04/26 11:37:27;;;;;;;3.93;2.47;;;;;;;-145.18;100.00;47207.38;4952208;29;20551;-71
2022/04/26 11:39:53;;;;;;;8.00;2.30;;;;;;;-145.18;100.00;47246.44;4952079;29;20031;-71
2022/04/26 11:42:19;;;;;;;3.57;2.13;;;;;;;-145.18;100.00;47244.50;4951993;29;20054;-71
2022/04/26 11:45:03;;;;;;;3.70;2.10;;;;;;;-145.18;100.00;47232.75;4951651;29;20039;-71
2022/04/26 11:47:39;;;;;;;6.97;2.00;;;;;;;-145.18;100.00;47228.84;4934587;29;20019;-71
2022/04/26 11:50:33;;;;;;;4.60;1.70;;;;;;;-145.18;100.00;47236.66;4961205;28;20031;-71
2022/04/26 11:53:12;;;;;;;6.03;2.77;;;;;;;-145.18;100.00;47234.72;4971277;28;20034;-71
2022/04/26 11:55:39;;;;;;;3.33;1.83;;;;;;;-145.18;100.00;47187.84;4953761;28;20034;-71
2022/04/26 11:58:15;;;;;;;3.70;2.60;;;;;;;-145.18;100.00;47180.03;4970952;28;20034;-72
2022/04/26 12:00:51;;;;;;;4.93;2.50;;;;;;;-145.18;100.00;47178.06;4971435;28;20718;-71
2022/04/26 12:03:17;;;;;;;;;;;;;;;-145.18;100.00;47209.31;4971329;28;20059;-72
2022/04/26 12:05:43;;;;;;;4.65;2.03;;;;;;;-145.18;100.00;47185.88;4970371;28;19968;-71
2022/04/26 12:08:11;;;;;;;2.83;1.90;;;;;;;-145.18;100.00;47121.41;4971509;28;20035;-71
2022/04/26 12:10:36;;;;;;;5.40;2.10;;;;;;;-145.18;100.00;47207.38;4970817;28;20403;-71
2022/04/26 12:13:05;;;;;;;6.57;2.30;;;;;;;-145.18;100.00;47156.56;4971097;28;20034;-71
2022/04/26 12:15:35;;;;;;;7.70;2.07;;;;;;;-145.18;100.00;47156.56;4970525;28;20027;-71
2022/04/26 12:18:13;;;;;;;3.93;1.60;;;;;;;-145.18;100.00;47209.31;4970123;28;20097;-71
2022/04/26 12:20:56;;;;;;;3.87;2.33;;;;;;;-145.18;100.00;47160.47;4969961;28;20027;-71
2022/04/26 12:23:22;;;;;;;4.03;1.50;;;;;;;-145.18;100.00;47207.38;4970567;28;20093;-71
2022/04/26 12:26:02;;;;;;;5.93;1.30;;;;;;;-145.18;100.00;47185.88;4951931;28;20034;-71
2022/04/26 12:28:29;;;;;;;6.03;1.67;;;;;;;-145.18;100.00;47144.84;4970628;28;20031;-72
2022/04/26 12:30:55;;;;;;;2.77;1.80;;;;;;;-145.18;100.00;47125.31;4970372;28;20026;-71
2022/04/26 12:33:25;;;;;;;3.53;1.00;;;;;;;-145.18;100.00;47150.72;4970520;28;20039;-72
2022/04/26 12:35:59;;;;;;;2.43;1.23;;;;;;;-145.18;100.00;47121.41;4970065;28;20163;-71
2022/04/26 12:38:25;;;;;;;2.63;1.20;;;;;;;-145.18;100.00;47142.91;4970479;28;20097;-71
2022/04/26 12:41:06;;;;;;;4.90;1.30;;;;;;;-145.18;100.00;47158.53;4968958;28;20067;-71
2022/04/26 12:43:32;;;;;;;2.33;1.33;;;;;;;-145.18;100.00;47142.91;4959695;28;20031;-71
2022/04/26 12:46:03;;;;;;;2.10;1.70;;;;;;;-145.18;100.00;47139.00;4945305;28;20042;-71
2022/04/26 12:51:18;;;;;;;1.90;1.05;;;;;;;-145.18;100.00;47148.75;4951454;28;20090;-71
2022/04/26 12:53:45;;;;;;;2.63;1.30;;;;;;;-145.18;100.00;47174.16;4951074;29;20038;-71
2022/04/26 12:56:11;;;;;;;3.93;1.43;;;;;;;-145.18;100.00;47140.94;4950966;29;20089;-71
2022/04/26 12:58:39;;;;;;;2.60;1.50;;;;;;;-145.18;100.00;47137.03;4950842;29;20039;-71
2022/04/26 13:01:06;;;;;;;2.80;1.17;;;;;;;-145.18;100.00;47137.03;4950031;29;20031;-71
2022/04/26 13:03:32;;;;;;;2.27;1.40;;;;;;;-145.18;100.00;47121.41;4950899;29;20488;-73
2022/04/26 13:06:08;;;;;;;3.87;1.60;;;;;;;-145.18;100.00;47129.22;4933402;29;20428;-70
2022/04/26 13:08:35;;;;;;;4.27;1.77;;;;;;;-145.18;100.00;47115.56;4950748;28;20073;-73
2022/04/26 13:11:00;;;;;;;4.33;1.73;;;;;;;-145.18;100.00;47140.94;4954485;29;20034;-72
2022/04/26 13:13:29;;;;;;;5.37;2.17;;;;;;;-145.18;100.00;47142.91;4954582;29;20521;-73
2022/04/26 13:15:54;;;;;;;3.07;1.77;;;;;;;-145.18;100.00;47152.66;4936739;29;20392;-73
2022/04/26 13:18:20;;;;;;;5.63;2.10;;;;;;;-145.18;100.00;47131.19;4954388;29;20035;-70
2022/04/26 13:20:46;;;;;;;4.90;1.73;;;;;;;-145.18;100.00;47097.97;4953468;29;20039;-70
2022/04/26 13:23:13;;;;;;;3.73;2.10;;;;;;;-145.18;100.00;47090.16;4953183;29;20062;-70
2022/04/26 13:25:39;;;;;;;4.60;2.17;;;;;;;-145.18;100.00;47105.78;4953082;29;20412;-70
2022/04/26 13:28:05;;;;;;;3.97;1.83;;;;;;;-145.18;100.00;47101.88;4954643;29;20452;-73
2022/04/26 13:30:30;;;;;;;3.73;1.80;;;;;;;-145.18;100.00;47119.47;4953778;29;20042;-71
2022/04/26 13:32:56;;;;;;;5.10;2.00;;;;;;;-145.18;97.36;47105.78;4954473;29;20407;-70
2022/04/26 13:35:22;;;;;;;3.60;2.10;;;;;;;-145.18;100.00;47125.31;4953537;29;20055;-70
2022/04/26 13:37:47;;;;;;;5.43;2.67;;;;;;;-145.18;100.00;47117.50;4954437;29;20046;-70
2022/04/26 13:40:13;;;;;;;4.47;2.67;;;;;;;-145.18;100.00;47111.66;4954315;29;20023;-70
2022/04/26 13:42:39;;;;;;;3.60;2.47;;;;;;;-145.18;100.00;47105.78;4954069;29;20044;-70
2022/04/26 13:45:06;;;;;;;4.93;2.20;;;;;;;-145.18;100.00;47123.38;4953557;28;20085;-71
2022/04/26 13:47:34;;;;;;;3.87;2.00;;;;;;;-145.18;100.00;47127.28;4953908;28;20650;-70
2022/04/26 13:49:59;;;;;;;6.00;2.40;;;;;;;-145.18;100.00;47097.97;4962438;28;20096;-70
2022/04/26 13:52:25;;;;;;;4.83;2.67;;;;;;;-145.18;100.00;47129.22;4956124;28;20051;-71
2022/04/26 13:54:51;;;;;;;5.63;2.30;;;;;;;-145.18;100.00;47119.47;4973302;28;20060;-70
2022/04/26 13:57:17;;;;;;;3.00;2.17;;;;;;;-145.18;100.00;47123.38;4973320;28;20047;-71
2022/04/26 13:59:43;;;;;;;3.07;2.07;;;;;;;-145.18;100.00;47090.16;4972820;28;20039;-70
2022/04/26 14:02:10;;;;;;;6.93;3.10;;;;;;;-145.18;100.00;47078.44;4973367;28;20027;-71
2022/04/26 14:04:35;;;;;;;4.07;2.27;;;;;;;-145.18;100.00;47176.09;4972470;28;20055;-71
2022/04/26 14:07:01;;;;;;;5.53;3.00;;;;;;;-145.18;100.00;47119.47;4973509;28;20045;-71
2022/04/26 14:09:27;;;;;;;4.27;2.30;;;;;;;-145.18;100.00;47125.31;4972726;28;20574;-70
2022/04/26 14:11:56;;;;;;;3.43;2.20;;;;;;;-145.18;100.00;47121.41;4972495;28;20039;-70
2022/04/26 14:22:43;;;;;;;8.23;2.37;;;;;;;-145.18;100.00;47193.69;4972417;28;20049;-70
2022/04/26 14:25:11;;;;;;;6.50;2.83;;;;;;;-145.18;100.00;47221.03;4960380;28;20437;-70
2022/04/26 14:27:37;;;;;;;10.27;2.67;;;;;;;-145.18;100.00;47264.03;4973076;28;20039;-70
2022/04/26 14:30:08;;;;;;;4.93;2.80;;;;;;;-145.18;100.00;47162.44;4972646;28;20039;-70
2022/04/26 14:32:34;;;;;;;7.13;2.90;;;;;;;-145.18;100.00;47158.53;4972818;28;20077;-70
2022/04/26 14:34:59;;;;;;;5.90;3.00;;;;;;;-145.18;100.00;47242.53;4972421;28;20109;-70
2022/04/26 14:37:25;;;;;;;7.67;2.93;;;;;;;-145.18;100.00;47252.31;4971778;28;20113;-70
2022/04/26 14:39:51;;;;;;;3.63;2.27;;;;;;;-145.18;100.00;47271.84;4952580;28;20050;-70
2022/04/26 14:42:18;;;;;;;4.30;2.90;;;;;;;-145.18;100.00;47265.97;4953468;28;20043;-70
2022/04/26 14:44:44;;;;;;;9.10;2.87;;;;;;;-145.18;100.00;47273.78;4952493;29;20039;-72
2022/04/26 14:47:11;;;;;;;9.53;3.37;;;;;;;-145.18;100.00;47248.41;4952937;29;20027;-70
2022/04/26 14:49:37;;;;;;;4.93;3.23;;;;;;;-145.18;100.00;47260.13;4957346;28;20553;-70
2022/04/26 14:52:03;;;;;;;8.40;2.97;;;;;;;-145.18;100.00;47254.25;4964300;28;20368;-70
2022/04/26 14:54:29;;;;;;;12.57;3.30;;;;;;;-145.18;100.00;47258.16;4954567;28;20043;-70
2022/04/26 14:56:54;;;;;;;5.30;3.23;;;;;;;-145.18;100.00;47258.16;4971173;28;20038;-70
2022/04/26 14:59:22;;;;;;;7.27;3.33;;;;;;;-145.18;100.00;47273.78;4961842;28;20043;-70
2022/04/26 15:01:49;;;;;;;6.87;3.30;;;;;;;-145.18;100.00;47281.59;4952557;29;20058;-70
2022/04/26 15:04:20;;;;;;;9.10;4.20;;;;;;;-145.18;100.00;47226.91;4952888;29;20051;-70
2022/04/26 15:06:46;;;;;;;6.40;3.80;;;;;;;-145.18;100.00;47154.63;4951801;29;20053;-73
2022/04/26 15:17:25;;;;;;;4.93;3.10;;;;;;;-145.18;100.00;47140.94;4971566;28;20041;-71
2022/04/26 15:19:51;;;;;;;7.27;3.13;;;;;;;-145.18;100.00;47133.13;4968826;28;20027;-71